sensor_id;sensor_type;location;lat;lon;timestamp;P1;durP1;ratioP1;P2;durP2;ratioP2
75746;SDS011;70632;52.232;21.038;2023-09-12T00:01:34;35.58;;;23.02;;
75746;SDS011;70632;52.232;21.038;2023-09-12T00:03:59;42.20;;;23.17;;
75746;SDS011;70632;52.232;21.038;2023-09-12T00:06:25;37.60;;;20.90;;
75746;SDS011;70632;52.232;21.038;2023-09-12T00:08:51;41.33;;;23.08;;
75746;SDS011;70632;52.232;21.038;2023-09-12T00:11:17;36.92;;;22.42;;
75746;SDS011;70632;52.232;21.038;2023-09-12T00:13:43;38.60;;;23.80;;
75746;SDS011;70632;52.232;21.038;2023-09-12T00:16:10;40.10;;;23.15;;
75746;SDS011;70632;52.232;21.038;2023-09-12T00:18:38;37.05;;;22.33;;
75746;SDS011;70632;52.232;21.038;2023-09-12T00:21:04;37.70;;;22.42;;
75746;SDS011;70632;52.232;21.038;2023-09-12T00:23:30;41.25;;;22.42;;
75746;SDS011;70632;52.232;21.038;2023-09-12T00:25:56;38.70;;;22.52;;
75746;SDS011;70632;52.232;21.038;2023-09-12T00:28:22;40.70;;;23.80;;
75746;SDS011;70632;52.232;21.038;2023-09-12T00:30:49;44.83;;;22.58;;
75746;SDS011;70632;52.232;21.038;2023-09-12T00:33:14;38.90;;;21.85;;
75746;SDS011;70632;52.232;21.038;2023-09-12T00:35:40;40.70;;;22.73;;
75746;SDS011;70632;52.232;21.038;2023-09-12T00:38:08;39.88;;;23.65;;
75746;SDS011;70632;52.232;21.038;2023-09-12T00:43:00;38.08;;;21.30;;
75746;SDS011;70632;52.232;21.038;2023-09-12T00:45:26;40.95;;;23.67;;
75746;SDS011;70632;52.232;21.038;2023-09-12T00:47:51;38.22;;;22.95;;
75746;SDS011;70632;52.232;21.038;2023-09-12T00:50:18;36.70;;;23.92;;
75746;SDS011;70632;52.232;21.038;2023-09-12T00:52:48;38.40;;;23.23;;
75746;SDS011;70632;52.232;21.038;2023-09-12T00:55:14;39.65;;;21.83;;
75746;SDS011;70632;52.232;21.038;2023-09-12T00:57:40;36.83;;;23.15;;
75746;SDS011;70632;52.232;21.038;2023-09-12T01:00:06;39.60;;;22.63;;
75746;SDS011;70632;52.232;21.038;2023-09-12T01:02:39;42.25;;;24.95;;
75746;SDS011;70632;52.232;21.038;2023-09-12T01:05:07;35.13;;;22.63;;
75746;SDS011;70632;52.232;21.038;2023-09-12T01:07:34;36.78;;;22.40;;
75746;SDS011;70632;52.232;21.038;2023-09-12T01:10:02;35.72;;;23.63;;
75746;SDS011;70632;52.232;21.038;2023-09-12T01:12:28;43.35;;;23.05;;
75746;SDS011;70632;52.232;21.038;2023-09-12T01:14:55;39.65;;;22.52;;
75746;SDS011;70632;52.232;21.038;2023-09-12T01:17:21;36.13;;;22.63;;
75746;SDS011;70632;52.232;21.038;2023-09-12T01:19:47;38.78;;;21.70;;
75746;SDS011;70632;52.232;21.038;2023-09-12T01:25:00;36.85;;;22.40;;
75746;SDS011;70632;52.232;21.038;2023-09-12T01:27:34;41.75;;;23.63;;
75746;SDS011;70632;52.232;21.038;2023-09-12T01:30:04;40.83;;;22.85;;
75746;SDS011;70632;52.232;21.038;2023-09-12T01:34:57;34.90;;;21.25;;
75746;SDS011;70632;52.232;21.038;2023-09-12T01:37:23;38.65;;;22.55;;
75746;SDS011;70632;52.232;21.038;2023-09-12T01:39:49;35.80;;;21.73;;
75746;SDS011;70632;52.232;21.038;2023-09-12T01:42:15;36.60;;;21.95;;
75746;SDS011;70632;52.232;21.038;2023-09-12T01:44:44;36.25;;;21.65;;
75746;SDS011;70632;52.232;21.038;2023-09-12T01:47:10;32.42;;;21.13;;
75746;SDS011;70632;52.232;21.038;2023-09-12T01:49:39;32.63;;;21.10;;
75746;SDS011;70632;52.232;21.038;2023-09-12T01:52:07;37.17;;;20.58;;
75746;SDS011;70632;52.232;21.038;2023-09-12T01:54:33;39.90;;;22.23;;
75746;SDS011;70632;52.232;21.038;2023-09-12T01:56:59;38.28;;;23.40;;
75746;SDS011;70632;52.232;21.038;2023-09-12T01:59:28;44.63;;;24.17;;
75746;SDS011;70632;52.232;21.038;2023-09-12T02:01:54;33.40;;;21.30;;
75746;SDS011;70632;52.232;21.038;2023-09-12T02:04:20;38.05;;;23.98;;
75746;SDS011;70632;52.232;21.038;2023-09-12T02:06:46;42.00;;;23.50;;
75746;SDS011;70632;52.232;21.038;2023-09-12T02:09:12;42.50;;;24.70;;
75746;SDS011;70632;52.232;21.038;2023-09-12T02:11:37;44.22;;;24.05;;
75746;SDS011;70632;52.232;21.038;2023-09-12T02:14:03;37.47;;;23.48;;
75746;SDS011;70632;52.232;21.038;2023-09-12T02:16:30;40.15;;;23.95;;
75746;SDS011;70632;52.232;21.038;2023-09-12T02:18:57;39.80;;;22.70;;
75746;SDS011;70632;52.232;21.038;2023-09-12T02:21:22;34.85;;;21.80;;
75746;SDS011;70632;52.232;21.038;2023-09-12T02:23:48;36.05;;;22.70;;
75746;SDS011;70632;52.232;21.038;2023-09-12T02:26:14;38.35;;;23.17;;
75746;SDS011;70632;52.232;21.038;2023-09-12T02:28:39;43.05;;;23.92;;
75746;SDS011;70632;52.232;21.038;2023-09-12T02:31:11;36.97;;;23.67;;
75746;SDS011;70632;52.232;21.038;2023-09-12T02:33:37;36.58;;;24.27;;
75746;SDS011;70632;52.232;21.038;2023-09-12T02:36:04;36.60;;;24.42;;
75746;SDS011;70632;52.232;21.038;2023-09-12T02:38:30;35.35;;;23.02;;
75746;SDS011;70632;52.232;21.038;2023-09-12T02:40:56;37.70;;;23.73;;
75746;SDS011;70632;52.232;21.038;2023-09-12T02:43:22;42.65;;;24.45;;
75746;SDS011;70632;52.232;21.038;2023-09-12T02:45:47;41.03;;;23.33;;
75746;SDS011;70632;52.232;21.038;2023-09-12T02:48:13;42.40;;;24.13;;
75746;SDS011;70632;52.232;21.038;2023-09-12T02:50:39;42.03;;;25.52;;
75746;SDS011;70632;52.232;21.038;2023-09-12T02:53:04;35.30;;;23.60;;
75746;SDS011;70632;52.232;21.038;2023-09-12T02:55:31;46.63;;;25.45;;
75746;SDS011;70632;52.232;21.038;2023-09-12T02:57:57;39.17;;;24.08;;
75746;SDS011;70632;52.232;21.038;2023-09-12T03:00:23;36.40;;;23.95;;
75746;SDS011;70632;52.232;21.038;2023-09-12T03:02:49;37.45;;;22.70;;
75746;SDS011;70632;52.232;21.038;2023-09-12T03:05:14;37.15;;;24.20;;
75746;SDS011;70632;52.232;21.038;2023-09-12T03:07:40;38.50;;;23.52;;
75746;SDS011;70632;52.232;21.038;2023-09-12T03:10:06;45.67;;;25.17;;
75746;SDS011;70632;52.232;21.038;2023-09-12T03:12:32;41.03;;;26.15;;
75746;SDS011;70632;52.232;21.038;2023-09-12T03:14:57;40.22;;;24.10;;
75746;SDS011;70632;52.232;21.038;2023-09-12T03:17:23;38.15;;;24.35;;
75746;SDS011;70632;52.232;21.038;2023-09-12T03:19:49;41.30;;;24.52;;
75746;SDS011;70632;52.232;21.038;2023-09-12T03:22:15;42.47;;;25.15;;
75746;SDS011;70632;52.232;21.038;2023-09-12T03:24:40;42.17;;;25.23;;
75746;SDS011;70632;52.232;21.038;2023-09-12T03:27:06;44.33;;;26.55;;
75746;SDS011;70632;52.232;21.038;2023-09-12T03:29:32;44.13;;;24.30;;
75746;SDS011;70632;52.232;21.038;2023-09-12T03:31:58;37.38;;;24.15;;
75746;SDS011;70632;52.232;21.038;2023-09-12T03:34:24;34.97;;;23.50;;
75746;SDS011;70632;52.232;21.038;2023-09-12T03:36:50;44.38;;;25.70;;
75746;SDS011;70632;52.232;21.038;2023-09-12T03:39:15;37.90;;;24.58;;
75746;SDS011;70632;52.232;21.038;2023-09-12T03:41:41;38.53;;;25.88;;
75746;SDS011;70632;52.232;21.038;2023-09-12T03:44:07;35.63;;;23.77;;
75746;SDS011;70632;52.232;21.038;2023-09-12T03:46:33;39.05;;;24.63;;
75746;SDS011;70632;52.232;21.038;2023-09-12T03:48:59;41.20;;;24.75;;
75746;SDS011;70632;52.232;21.038;2023-09-12T03:51:24;40.42;;;24.98;;
75746;SDS011;70632;52.232;21.038;2023-09-12T03:53:50;41.88;;;25.60;;
75746;SDS011;70632;52.232;21.038;2023-09-12T03:56:16;43.58;;;25.83;;
75746;SDS011;70632;52.232;21.038;2023-09-12T03:58:45;48.42;;;27.30;;
75746;SDS011;70632;52.232;21.038;2023-09-12T04:01:11;43.10;;;25.73;;
75746;SDS011;70632;52.232;21.038;2023-09-12T04:03:36;42.03;;;26.15;;
75746;SDS011;70632;52.232;21.038;2023-09-12T04:06:02;46.40;;;27.92;;
75746;SDS011;70632;52.232;21.038;2023-09-12T04:08:28;45.95;;;26.95;;
75746;SDS011;70632;52.232;21.038;2023-09-12T04:10:54;41.92;;;26.23;;
75746;SDS011;70632;52.232;21.038;2023-09-12T04:13:19;47.88;;;27.60;;
75746;SDS011;70632;52.232;21.038;2023-09-12T04:15:45;45.15;;;28.10;;
75746;SDS011;70632;52.232;21.038;2023-09-12T04:18:11;44.70;;;27.27;;
75746;SDS011;70632;52.232;21.038;2023-09-12T04:20:36;49.28;;;29.30;;
75746;SDS011;70632;52.232;21.038;2023-09-12T04:23:02;51.63;;;28.73;;
75746;SDS011;70632;52.232;21.038;2023-09-12T04:25:29;45.45;;;27.23;;
75746;SDS011;70632;52.232;21.038;2023-09-12T04:27:55;48.10;;;26.65;;
75746;SDS011;70632;52.232;21.038;2023-09-12T04:30:21;47.88;;;26.73;;
75746;SDS011;70632;52.232;21.038;2023-09-12T04:32:47;47.92;;;27.45;;
75746;SDS011;70632;52.232;21.038;2023-09-12T04:35:13;46.08;;;28.15;;
75746;SDS011;70632;52.232;21.038;2023-09-12T04:37:38;44.83;;;27.48;;
75746;SDS011;70632;52.232;21.038;2023-09-12T04:40:04;50.25;;;28.85;;
75746;SDS011;70632;52.232;21.038;2023-09-12T04:42:32;55.05;;;28.77;;
75746;SDS011;70632;52.232;21.038;2023-09-12T04:44:57;45.60;;;27.25;;
75746;SDS011;70632;52.232;21.038;2023-09-12T04:47:23;46.58;;;29.00;;
75746;SDS011;70632;52.232;21.038;2023-09-12T04:49:49;55.83;;;31.65;;
75746;SDS011;70632;52.232;21.038;2023-09-12T18:50:05;26.38;;;17.38;;
75746;SDS011;70632;52.232;21.038;2023-09-12T18:52:32;27.10;;;17.92;;
75746;SDS011;70632;52.232;21.038;2023-09-12T18:54:57;29.98;;;18.73;;
75746;SDS011;70632;52.232;21.038;2023-09-12T18:57:23;25.48;;;17.90;;
75746;SDS011;70632;52.232;21.038;2023-09-12T18:59:49;28.15;;;18.73;;
75746;SDS011;70632;52.232;21.038;2023-09-12T19:02:15;195.25;;;47.15;;
75746;SDS011;70632;52.232;21.038;2023-09-12T19:04:40;181.05;;;45.85;;
75746;SDS011;70632;52.232;21.038;2023-09-12T19:07:06;322.27;;;67.63;;
75746;SDS011;70632;52.232;21.038;2023-09-12T19:09:32;30.65;;;19.65;;
75746;SDS011;70632;52.232;21.038;2023-09-12T19:11:57;31.70;;;19.75;;
75746;SDS011;70632;52.232;21.038;2023-09-12T19:14:24;27.98;;;17.90;;
75746;SDS011;70632;52.232;21.038;2023-09-12T19:16:54;29.55;;;19.98;;
75746;SDS011;70632;52.232;21.038;2023-09-12T19:19:20;29.00;;;17.92;;
75746;SDS011;70632;52.232;21.038;2023-09-12T19:21:47;28.40;;;19.40;;
75746;SDS011;70632;52.232;21.038;2023-09-12T19:24:16;30.08;;;18.65;;
75746;SDS011;70632;52.232;21.038;2023-09-12T19:26:41;26.67;;;17.83;;
75746;SDS011;70632;52.232;21.038;2023-09-12T19:29:07;28.38;;;18.75;;
75746;SDS011;70632;52.232;21.038;2023-09-12T19:31:34;24.27;;;18.10;;
75746;SDS011;70632;52.232;21.038;2023-09-12T19:34:00;24.40;;;18.45;;
75746;SDS011;70632;52.232;21.038;2023-09-12T19:36:28;30.80;;;19.02;;
75746;SDS011;70632;52.232;21.038;2023-09-12T19:38:55;25.38;;;18.25;;
75746;SDS011;70632;52.232;21.038;2023-09-12T19:41:23;27.27;;;19.27;;
75746;SDS011;70632;52.232;21.038;2023-09-12T19:43:49;27.88;;;19.65;;
75746;SDS011;70632;52.232;21.038;2023-09-12T19:46:15;26.83;;;17.60;;
75746;SDS011;70632;52.232;21.038;2023-09-12T19:48:43;31.05;;;19.33;;
75746;SDS011;70632;52.232;21.038;2023-09-12T19:51:14;28.77;;;18.48;;
75746;SDS011;70632;52.232;21.038;2023-09-12T19:53:40;33.17;;;19.23;;
75746;SDS011;70632;52.232;21.038;2023-09-12T19:56:07;31.48;;;20.80;;
75746;SDS011;70632;52.232;21.038;2023-09-12T19:58:33;33.70;;;20.27;;
75746;SDS011;70632;52.232;21.038;2023-09-12T20:00:59;35.45;;;19.60;;
75746;SDS011;70632;52.232;21.038;2023-09-12T20:03:26;32.60;;;19.33;;
75746;SDS011;70632;52.232;21.038;2023-09-12T20:05:53;28.58;;;20.00;;
75746;SDS011;70632;52.232;21.038;2023-09-12T20:08:19;27.92;;;19.30;;
75746;SDS011;70632;52.232;21.038;2023-09-12T20:10:45;32.25;;;21.83;;
75746;SDS011;70632;52.232;21.038;2023-09-12T20:13:11;32.78;;;20.02;;
75746;SDS011;70632;52.232;21.038;2023-09-12T20:15:36;34.00;;;22.48;;
75746;SDS011;70632;52.232;21.038;2023-09-12T20:20:34;27.58;;;19.95;;
75746;SDS011;70632;52.232;21.038;2023-09-12T20:23:00;29.77;;;20.52;;
75746;SDS011;70632;52.232;21.038;2023-09-12T20:25:26;34.55;;;19.90;;
75746;SDS011;70632;52.232;21.038;2023-09-12T20:27:52;30.50;;;18.98;;
75746;SDS011;70632;52.232;21.038;2023-09-12T20:30:18;32.60;;;19.45;;
75746;SDS011;70632;52.232;21.038;2023-09-12T20:32:46;33.65;;;20.75;;
75746;SDS011;70632;52.232;21.038;2023-09-12T20:35:13;31.52;;;20.50;;
75746;SDS011;70632;52.232;21.038;2023-09-12T20:37:50;34.67;;;20.55;;
75746;SDS011;70632;52.232;21.038;2023-09-12T20:40:16;34.70;;;22.50;;
75746;SDS011;70632;52.232;21.038;2023-09-12T20:42:43;37.55;;;23.48;;
75746;SDS011;70632;52.232;21.038;2023-09-12T20:45:12;34.17;;;21.10;;
75746;SDS011;70632;52.232;21.038;2023-09-12T20:47:38;40.40;;;21.63;;
75746;SDS011;70632;52.232;21.038;2023-09-12T20:50:04;35.38;;;20.33;;
75746;SDS011;70632;52.232;21.038;2023-09-12T20:52:33;31.95;;;21.80;;
75746;SDS011;70632;52.232;21.038;2023-09-12T20:54:59;31.65;;;21.20;;
75746;SDS011;70632;52.232;21.038;2023-09-12T20:57:24;37.85;;;22.30;;
75746;SDS011;70632;52.232;21.038;2023-09-12T20:59:50;33.90;;;21.92;;
75746;SDS011;70632;52.232;21.038;2023-09-12T21:02:16;31.45;;;21.70;;
75746;SDS011;70632;52.232;21.038;2023-09-12T21:04:41;39.25;;;22.70;;
75746;SDS011;70632;52.232;21.038;2023-09-12T21:07:07;39.30;;;22.58;;
75746;SDS011;70632;52.232;21.038;2023-09-12T21:09:33;37.63;;;24.90;;
75746;SDS011;70632;52.232;21.038;2023-09-12T21:11:58;35.03;;;23.42;;
75746;SDS011;70632;52.232;21.038;2023-09-12T21:14:30;36.40;;;23.92;;
75746;SDS011;70632;52.232;21.038;2023-09-12T21:16:56;51.03;;;28.20;;
75746;SDS011;70632;52.232;21.038;2023-09-12T21:19:22;47.58;;;25.58;;
75746;SDS011;70632;52.232;21.038;2023-09-12T21:21:48;44.20;;;26.02;;
75746;SDS011;70632;52.232;21.038;2023-09-12T21:24:13;46.40;;;26.08;;
75746;SDS011;70632;52.232;21.038;2023-09-12T21:26:39;44.22;;;25.92;;
75746;SDS011;70632;52.232;21.038;2023-09-12T21:29:05;42.58;;;25.75;;
75746;SDS011;70632;52.232;21.038;2023-09-12T21:31:30;38.13;;;23.85;;
75746;SDS011;70632;52.232;21.038;2023-09-12T21:33:56;37.58;;;24.00;;
75746;SDS011;70632;52.232;21.038;2023-09-12T21:36:22;42.40;;;25.67;;
75746;SDS011;70632;52.232;21.038;2023-09-12T21:38:49;40.17;;;26.45;;
75746;SDS011;70632;52.232;21.038;2023-09-12T21:41:14;37.65;;;24.92;;
75746;SDS011;70632;52.232;21.038;2023-09-12T21:43:40;42.13;;;26.08;;
75746;SDS011;70632;52.232;21.038;2023-09-12T21:46:06;46.85;;;26.27;;
75746;SDS011;70632;52.232;21.038;2023-09-12T21:48:32;42.65;;;26.60;;
75746;SDS011;70632;52.232;21.038;2023-09-12T21:50:57;39.58;;;25.63;;
75746;SDS011;70632;52.232;21.038;2023-09-12T21:53:23;44.15;;;27.52;;
75746;SDS011;70632;52.232;21.038;2023-09-12T21:55:48;45.15;;;27.73;;
75746;SDS011;70632;52.232;21.038;2023-09-12T21:58:14;46.30;;;29.70;;
75746;SDS011;70632;52.232;21.038;2023-09-12T22:00:40;44.58;;;26.90;;
75746;SDS011;70632;52.232;21.038;2023-09-12T22:03:08;38.90;;;27.38;;
75746;SDS011;70632;52.232;21.038;2023-09-12T22:05:35;44.50;;;28.30;;
75746;SDS011;70632;52.232;21.038;2023-09-12T22:08:03;41.50;;;26.13;;
75746;SDS011;70632;52.232;21.038;2023-09-12T22:10:30;44.97;;;28.10;;
75746;SDS011;70632;52.232;21.038;2023-09-12T22:12:56;44.05;;;26.58;;
75746;SDS011;70632;52.232;21.038;2023-09-12T22:15:21;43.60;;;28.33;;
75746;SDS011;70632;52.232;21.038;2023-09-12T22:17:47;45.35;;;28.15;;
75746;SDS011;70632;52.232;21.038;2023-09-12T22:20:13;47.67;;;28.80;;
75746;SDS011;70632;52.232;21.038;2023-09-12T22:22:44;44.85;;;28.10;;
75746;SDS011;70632;52.232;21.038;2023-09-12T22:25:10;54.03;;;31.65;;
75746;SDS011;70632;52.232;21.038;2023-09-12T22:27:37;51.60;;;30.20;;
75746;SDS011;70632;52.232;21.038;2023-09-12T22:30:05;49.90;;;30.23;;
75746;SDS011;70632;52.232;21.038;2023-09-12T22:32:31;49.55;;;30.35;;
75746;SDS011;70632;52.232;21.038;2023-09-12T22:34:57;52.53;;;30.33;;
75746;SDS011;70632;52.232;21.038;2023-09-12T22:37:22;54.17;;;31.40;;
75746;SDS011;70632;52.232;21.038;2023-09-12T22:39:48;48.17;;;29.95;;
75746;SDS011;70632;52.232;21.038;2023-09-12T22:42:15;55.33;;;33.50;;
75746;SDS011;70632;52.232;21.038;2023-09-12T22:44:41;51.08;;;32.25;;
75746;SDS011;70632;52.232;21.038;2023-09-12T22:47:08;54.10;;;31.65;;
75746;SDS011;70632;52.232;21.038;2023-09-12T22:49:33;50.90;;;32.15;;
75746;SDS011;70632;52.232;21.038;2023-09-12T22:51:59;53.22;;;32.42;;
75746;SDS011;70632;52.232;21.038;2023-09-12T22:54:25;58.50;;;32.00;;
75746;SDS011;70632;52.232;21.038;2023-09-12T22:56:51;52.25;;;32.00;;
75746;SDS011;70632;52.232;21.038;2023-09-12T22:59:16;53.95;;;32.83;;
75746;SDS011;70632;52.232;21.038;2023-09-12T23:01:42;54.47;;;32.25;;
75746;SDS011;70632;52.232;21.038;2023-09-12T23:04:08;51.17;;;31.83;;
75746;SDS011;70632;52.232;21.038;2023-09-12T23:06:34;56.85;;;31.90;;
75746;SDS011;70632;52.232;21.038;2023-09-12T23:08:59;54.15;;;33.33;;
75746;SDS011;70632;52.232;21.038;2023-09-12T23:11:29;54.28;;;31.60;;
75746;SDS011;70632;52.232;21.038;2023-09-12T23:13:58;53.80;;;31.48;;
75746;SDS011;70632;52.232;21.038;2023-09-12T23:16:24;60.53;;;35.78;;
75746;SDS011;70632;52.232;21.038;2023-09-12T23:18:49;51.08;;;34.53;;
75746;SDS011;70632;52.232;21.038;2023-09-12T23:21:15;60.00;;;35.22;;
75746;SDS011;70632;52.232;21.038;2023-09-12T23:23:41;60.17;;;34.40;;
75746;SDS011;70632;52.232;21.038;2023-09-12T23:26:07;55.33;;;33.90;;
75746;SDS011;70632;52.232;21.038;2023-09-12T23:28:32;57.45;;;32.45;;
75746;SDS011;70632;52.232;21.038;2023-09-12T23:30:58;64.38;;;33.33;;
75746;SDS011;70632;52.232;21.038;2023-09-12T23:33:24;53.47;;;32.72;;
75746;SDS011;70632;52.232;21.038;2023-09-12T23:35:50;51.60;;;31.77;;
75746;SDS011;70632;52.232;21.038;2023-09-12T23:38:16;53.92;;;33.00;;
75746;SDS011;70632;52.232;21.038;2023-09-12T23:40:42;51.03;;;29.77;;
75746;SDS011;70632;52.232;21.038;2023-09-12T23:43:10;49.33;;;31.45;;
75746;SDS011;70632;52.232;21.038;2023-09-12T23:45:36;50.92;;;29.15;;
75746;SDS011;70632;52.232;21.038;2023-09-12T23:48:02;44.38;;;28.98;;
75746;SDS011;70632;52.232;21.038;2023-09-12T23:50:29;50.83;;;31.40;;
75746;SDS011;70632;52.232;21.038;2023-09-12T23:52:56;49.25;;;29.52;;
75746;SDS011;70632;52.232;21.038;2023-09-12T23:55:22;41.25;;;27.88;;
75746;SDS011;70632;52.232;21.038;2023-09-12T23:57:48;48.67;;;30.05;;
